Time;durP1;ratioP1;P1;durP2;ratioP2;P2;SDS_P1;SDS_P2;PMS_P1;PMS_P2;Temp;Humidity;BMP_temperature;BMP_pressure;BME280_temperature;BME280_humidity;BME280_pressure;Samples;Min_cycle;Max_cycle;Signal;HPM_P1;HPM_P2
2024/02/05 00:01:50;;;;;;;1.52;1.42;;;6.50;99.90;;;;;;5029100;28;20627;-75
2024/02/05 00:04:17;;;;;;;1.80;1.40;;;6.60;99.90;;;;;;5030646;28;20291;-75
2024/02/05 00:06:44;;;;;;;0.90;0.90;;;6.70;99.90;;;;;;5029092;28;20636;-75
2024/02/05 00:09:10;;;;;;;0.90;0.90;;;6.60;99.90;;;;;;5026436;28;20211;-75
2024/02/05 00:11:37;;;;;;;1.10;1.00;;;6.60;99.90;;;;;;5029502;28;20659;-75
2024/02/05 00:14:04;;;;;;;1.57;1.20;;;6.70;99.90;;;;;;5029011;28;20708;-75
2024/02/05 00:16:31;;;;;;;1.00;0.87;;;6.70;99.90;;;;;;5026935;28;20629;-75
2024/02/05 00:18:59;;;;;;;0.90;0.90;;;6.60;99.90;;;;;;5024287;28;20646;-75
2024/02/05 00:21:26;;;;;;;1.60;1.20;;;6.80;99.90;;;;;;5028202;28;20631;-75
2024/02/05 00:23:53;;;;;;;1.10;1.10;;;6.70;99.90;;;;;;5032564;28;20656;-75
2024/02/05 00:26:20;;;;;;;1.87;1.60;;;7.30;99.90;;;;;;5030796;28;20628;-75
2024/02/05 00:28:46;;;;;;;1.20;1.20;;;7.00;99.90;;;;;;5034182;28;20658;-75
2024/02/05 00:31:14;;;;;;;2.53;1.20;;;6.90;99.90;;;;;;5028685;28;20632;-76
2024/02/05 00:33:41;;;;;;;1.70;1.60;;;6.90;99.90;;;;;;5027945;28;20723;-75
2024/02/05 00:36:09;;;;;;;1.40;1.30;;;7.00;99.90;;;;;;5027431;28;20633;-75
2024/02/05 00:38:36;;;;;;;1.33;1.23;;;6.40;99.90;;;;;;5025364;28;20667;-75
2024/02/05 00:41:02;;;;;;;1.80;1.10;;;6.80;99.90;;;;;;5024221;28;20637;-75
2024/02/05 00:43:30;;;;;;;1.57;1.30;;;6.80;99.90;;;;;;5022511;28;20639;-75
2024/02/05 00:45:57;;;;;;;1.23;1.13;;;6.80;99.90;;;;;;5026528;28;20723;-75
2024/02/05 00:48:24;;;;;;;2.40;1.50;;;6.60;99.90;;;;;;5018122;28;20668;-75
2024/02/05 00:50:51;;;;;;;2.20;1.40;;;6.70;99.90;;;;;;5034720;28;20634;-75
2024/02/05 00:53:19;;;;;;;1.17;1.07;;;6.60;99.90;;;;;;5026400;28;20679;-75
2024/02/05 00:55:46;;;;;;;1.50;1.40;;;7.00;99.90;;;;;;5036055;27;20735;-75
2024/02/05 00:58:13;;;;;;;1.43;1.33;;;7.20;99.90;;;;;;5062149;27;20202;-75
2024/02/05 01:00:40;;;;;;;1.33;1.20;;;6.70;99.90;;;;;;5036480;27;21178;-75
2024/02/05 01:03:07;;;;;;;1.43;1.20;;;6.40;99.90;;;;;;5027478;28;20621;-75
2024/02/05 01:05:34;;;;;;;1.47;1.37;;;6.60;99.90;;;;;;5020705;28;20681;-75
2024/02/05 01:08:01;;;;;;;1.33;1.23;;;6.60;99.90;;;;;;5033678;27;20623;-75
2024/02/05 01:10:29;;;;;;;0.97;0.97;;;6.60;99.90;;;;;;5030831;28;20671;-75
2024/02/05 01:12:56;;;;;;;1.80;1.33;;;6.80;99.90;;;;;;5027609;28;20646;-75
2024/02/05 01:15:23;;;;;;;1.35;1.20;;;6.90;99.90;;;;;;5030284;28;20678;-75
2024/02/05 01:17:50;;;;;;;1.30;1.17;;;6.70;99.90;;;;;;5031388;28;20200;-75
2024/02/05 01:20:17;;;;;;;1.63;0.83;;;6.80;99.90;;;;;;5033055;28;20635;-75
2024/02/05 01:22:43;;;;;;;1.33;1.17;;;6.80;99.90;;;;;;5028498;28;20638;-75
2024/02/05 01:25:11;;;;;;;2.27;1.00;;;6.70;99.90;;;;;;5023670;28;20624;-75
2024/02/05 01:27:39;;;;;;;1.07;0.97;;;6.80;99.90;;;;;;5027949;28;20635;-75
2024/02/05 01:30:06;;;;;;;0.93;0.77;;;6.80;99.90;;;;;;5030643;28;20623;-75
2024/02/05 01:32:33;;;;;;;0.50;0.50;;;6.40;99.90;;;;;;5029726;28;20624;-75
2024/02/05 01:35:00;;;;;;;0.63;0.50;;;6.90;99.90;;;;;;5030542;28;20655;-75
2024/02/05 01:37:27;;;;;;;0.97;0.80;;;6.90;99.90;;;;;;5030185;28;21028;-75
2024/02/05 01:39:54;;;;;;;0.80;0.80;;;6.80;99.90;;;;;;5026448;28;20759;-75
2024/02/05 01:42:21;;;;;;;0.70;0.70;;;6.90;99.90;;;;;;5030772;28;20624;-75
2024/02/05 01:44:49;;;;;;;1.00;0.70;;;7.00;99.90;;;;;;5030060;28;20951;-75
2024/02/05 01:47:16;;;;;;;0.90;0.90;;;7.00;99.90;;;;;;5026491;28;20744;-75
2024/02/05 01:49:45;;;;;;;1.43;1.00;;;6.90;99.90;;;;;;5042409;27;20640;-75
2024/02/05 01:52:14;;;;;;;1.17;0.70;;;6.90;99.90;;;;;;5026859;28;20735;-75
2024/02/05 01:54:41;;;;;;;1.23;0.90;;;7.50;99.90;;;;;;5027175;28;20703;-75
2024/02/05 01:57:11;;;;;;;1.50;1.40;;;7.00;99.90;;;;;;5028958;28;20730;-75
2024/02/05 01:59:38;;;;;;;2.90;0.73;;;7.00;99.90;;;;;;5025982;28;20639;-75
2024/02/05 02:02:07;;;;;;;1.10;0.50;;;7.00;99.90;;;;;;5027551;28;20722;-75
2024/02/05 02:04:35;;;;;;;0.50;0.40;;;7.20;99.90;;;;;;5028002;28;20718;-75
2024/02/05 02:07:03;;;;;;;1.63;0.60;;;6.90;99.90;;;;;;5020107;28;20638;-75
2024/02/05 02:09:30;;;;;;;0.50;0.50;;;6.90;99.90;;;;;;5022943;28;20633;-75
2024/02/05 02:11:58;;;;;;;0.93;0.60;;;7.10;99.90;;;;;;5027300;28;21040;-75
2024/02/05 02:14:26;;;;;;;3.03;0.43;;;7.10;99.90;;;;;;5026798;28;20695;-75
2024/02/05 02:16:54;;;;;;;1.30;0.83;;;7.10;99.90;;;;;;5021833;28;20620;-75
2024/02/05 02:19:30;;;;;;;0.67;0.60;;;7.00;99.90;;;;;;5022487;28;20628;-75
2024/02/05 02:22:05;;;;;;;0.88;0.68;;;7.00;99.90;;;;;;5018207;28;20730;-75
2024/02/05 02:24:36;;;;;;;0.90;0.73;;;7.10;99.90;;;;;;5026227;28;20666;-75
2024/02/05 02:27:04;;;;;;;0.93;0.90;;;7.00;99.90;;;;;;5023779;28;20665;-75
2024/02/05 02:29:31;;;;;;;1.17;0.65;;;7.10;99.90;;;;;;5022169;28;20637;-75
2024/02/05 02:32:08;;;;;;;2.07;0.80;;;7.10;99.90;;;;;;5025803;28;20658;-75
2024/02/05 02:34:41;;;;;;;0.90;0.57;;;7.10;99.90;;;;;;5025671;28;20764;-75
2024/02/05 02:37:13;;;;;;;0.60;0.60;;;7.10;99.90;;;;;;5025996;28;20996;-75
2024/02/05 02:39:48;;;;;;;2.23;1.03;;;7.20;99.90;;;;;;5026478;28;21055;-75
2024/02/05 02:42:17;;;;;;;0.87;0.83;;;7.10;99.90;;;;;;5024721;28;20665;-75
2024/02/05 02:44:46;;;;;;;7.90;1.17;;;7.10;99.90;;;;;;5023834;28;20616;-75
2024/02/05 02:47:14;;;;;;;0.67;0.43;;;7.10;99.90;;;;;;5019496;28;20637;-75
2024/02/05 02:49:42;;;;;;;1.05;0.95;;;7.00;99.90;;;;;;5021968;28;20650;-75
2024/02/05 02:52:09;;;;;;;1.90;0.73;;;7.00;99.90;;;;;;5021564;28;20294;-75
2024/02/05 02:54:36;;;;;;;5.43;0.83;;;7.50;99.90;;;;;;5019939;28;20672;-75
2024/02/05 02:57:04;;;;;;;0.50;0.50;;;6.80;99.90;;;;;;5017702;28;20623;-75
2024/02/05 02:59:31;;;;;;;1.10;1.00;;;6.90;99.90;;;;;;5017591;28;21357;-75
2024/02/05 03:01:58;;;;;;;1.00;0.75;;;7.30;99.90;;;;;;5029685;28;20607;-75
2024/02/05 03:04:27;;;;;;;2.47;1.83;;;7.00;99.90;;;;;;5025156;28;20204;-75
2024/02/05 03:06:54;;;;;;;2.17;0.90;;;7.00;99.90;;;;;;5029127;28;20209;-75
2024/02/05 03:09:23;;;;;;;0.82;0.60;;;7.00;99.90;;;;;;5022625;28;20308;-75
2024/02/05 03:11:50;;;;;;;1.02;0.70;;;7.00;99.90;;;;;;5029459;28;20188;-75
2024/02/05 03:14:23;;;;;;;0.75;0.65;;;7.10;99.90;;;;;;5031614;28;20196;-75
2024/02/05 03:16:51;;;;;;;0.70;0.60;;;7.20;99.90;;;;;;5026101;28;20683;-75
2024/02/05 03:19:19;;;;;;;1.08;0.75;;;7.10;99.90;;;;;;5027782;28;20201;-75
2024/02/05 03:21:48;;;;;;;0.65;0.60;;;7.10;99.90;;;;;;5016136;28;20563;-75
2024/02/05 03:24:16;;;;;;;1.40;0.47;;;7.10;99.90;;;;;;5034449;28;20299;-75
2024/02/05 03:26:43;;;;;;;1.48;0.75;;;7.20;99.90;;;;;;5031085;28;20266;-75
2024/02/05 03:29:12;;;;;;;1.55;0.57;;;7.10;99.90;;;;;;5029527;28;20209;-75
2024/02/05 03:31:42;;;;;;;0.63;0.40;;;7.10;99.90;;;;;;5027952;28;20281;-75
2024/02/05 03:34:10;;;;;;;0.80;0.57;;;7.10;99.90;;;;;;5033289;27;20631;-75
2024/02/05 03:36:37;;;;;;;1.98;0.47;;;7.20;99.90;;;;;;5030426;28;20311;-75
2024/02/05 03:39:05;;;;;;;1.07;0.77;;;7.10;99.90;;;;;;5026014;28;20201;-75
2024/02/05 03:41:32;;;;;;;2.13;1.30;;;7.00;99.90;;;;;;5031283;28;20656;-75
2024/02/05 03:44:00;;;;;;;0.50;0.50;;;7.20;99.90;;;;;;5029999;28;20722;-75
2024/02/05 03:46:27;;;;;;;0.73;0.63;;;7.10;99.90;;;;;;5030494;28;20692;-75
2024/02/05 03:48:56;;;;;;;0.70;0.40;;;7.20;99.90;;;;;;5022845;28;20250;-75
2024/02/05 03:51:23;;;;;;;1.17;0.40;;;7.10;99.90;;;;;;5030530;28;20210;-75
2024/02/05 03:53:50;;;;;;;1.17;1.00;;;7.30;99.90;;;;;;5016999;28;20638;-75
2024/02/05 03:56:18;;;;;;;0.70;0.70;;;7.10;99.90;;;;;;5028889;28;20239;-74
2024/02/05 03:58:44;;;;;;;0.50;0.50;;;7.30;99.90;;;;;;5024895;28;20539;-75
2024/02/05 04:01:11;;;;;;;1.23;0.60;;;7.20;99.90;;;;;;5028668;28;20635;-75
2024/02/05 04:03:38;;;;;;;0.60;0.43;;;7.70;99.90;;;;;;5028673;28;20628;-75
2024/02/05 04:06:07;;;;;;;0.60;0.50;;;7.20;99.90;;;;;;5032687;28;20695;-75
2024/02/05 04:08:34;;;;;;;0.60;0.47;;;7.30;99.90;;;;;;5023453;28;20631;-75
2024/02/05 04:11:00;;;;;;;0.60;0.60;;;7.20;99.90;;;;;;5016828;28;20626;-75
2024/02/05 04:13:27;;;;;;;0.60;0.47;;;7.30;99.90;;;;;;5015653;28;20991;-75
2024/02/05 04:15:54;;;;;;;0.47;0.40;;;7.10;99.90;;;;;;5026559;28;20655;-75
2024/02/05 04:18:21;;;;;;;0.83;0.57;;;7.20;99.90;;;;;;5028002;28;20631;-75
2024/02/05 04:20:48;;;;;;;0.50;0.40;;;7.50;99.90;;;;;;5031994;28;21257;-75
2024/02/05 04:23:16;;;;;;;0.70;0.50;;;7.80;99.90;;;;;;5022371;28;20734;-75
2024/02/05 04:25:42;;;;;;;0.60;0.60;;;7.30;99.90;;;;;;5022378;28;20638;-75
2024/02/05 04:28:09;;;;;;;0.80;0.50;;;7.50;99.90;;;;;;5027411;28;20896;-75
2024/02/05 04:30:37;;;;;;;1.60;0.65;;;7.30;99.90;;;;;;5027898;28;20716;-75
2024/02/05 04:33:04;;;;;;;1.23;0.70;;;7.40;99.90;;;;;;5031312;28;20197;-75
2024/02/05 04:35:31;;;;;;;0.60;0.60;;;7.40;99.90;;;;;;5024235;28;21075;-75
2024/02/05 04:37:58;;;;;;;2.93;0.73;;;6.00;99.90;;;;;;5063634;27;20649;-75
2024/02/05 04:40:26;;;;;;;5.83;0.83;;;7.30;99.90;;;;;;5048886;27;20625;-75
2024/02/05 04:42:53;;;;;;;0.80;0.80;;;7.30;99.90;;;;;;5035216;28;20624;-75
2024/02/05 04:45:20;;;;;;;0.77;0.63;;;7.30;99.90;;;;;;5026898;28;20661;-76
2024/02/05 04:47:47;;;;;;;0.60;0.60;;;7.20;99.90;;;;;;5016819;28;20642;-75
2024/02/05 04:50:14;;;;;;;0.80;0.70;;;7.30;99.90;;;;;;5031613;28;20653;-75
2024/02/05 04:52:41;;;;;;;1.00;0.70;;;7.30;99.90;;;;;;5016005;28;20635;-75
2024/02/05 04:55:08;;;;;;;1.10;1.00;;;7.40;99.90;;;;;;5023468;28;20744;-75
2024/02/05 04:57:36;;;;;;;0.87;0.80;;;7.30;99.90;;;;;;5023855;28;20703;-75
2024/02/05 05:00:05;;;;;;;4.27;1.10;;;7.40;99.90;;;;;;5019544;28;20624;-75
2024/02/05 05:02:32;;;;;;;1.00;0.77;;;7.30;99.90;;;;;;5023593;28;20619;-75
2024/02/05 05:04:59;;;;;;;2.73;1.50;;;7.30;99.90;;;;;;5021559;28;21033;-74
2024/02/05 05:07:26;;;;;;;0.77;0.77;;;7.30;99.90;;;;;;5026481;28;20623;-74
2024/02/05 05:09:53;;;;;;;0.73;0.73;;;7.30;99.90;;;;;;5031585;28;20638;-74
2024/02/05 05:12:20;;;;;;;0.60;0.60;;;7.30;99.90;;;;;;5027482;28;20203;-76
2024/02/05 05:14:48;;;;;;;0.60;0.60;;;7.20;99.90;;;;;;5020417;28;20627;-76
2024/02/05 05:17:14;;;;;;;1.17;0.77;;;7.20;99.90;;;;;;5031847;28;21206;-74
2024/02/05 05:19:41;;;;;;;2.23;0.80;;;7.30;99.90;;;;;;5030919;28;20956;-74
2024/02/05 05:22:08;;;;;;;0.73;0.70;;;7.40;99.90;;;;;;5026843;28;21159;-74
2024/02/05 05:24:35;;;;;;;1.00;0.90;;;7.50;99.90;;;;;;5028577;28;20637;-74
2024/02/05 05:27:02;;;;;;;0.90;0.80;;;7.70;99.90;;;;;;5028407;28;20197;-74
2024/02/05 05:29:28;;;;;;;0.93;0.83;;;7.40;99.90;;;;;;5028205;28;21050;-74
2024/02/05 05:31:56;;;;;;;0.90;0.90;;;7.40;99.90;;;;;;5029538;28;20624;-74
2024/02/05 05:34:23;;;;;;;1.17;0.77;;;7.50;99.90;;;;;;5021694;28;20204;-74
2024/02/05 05:36:50;;;;;;;0.60;0.50;;;7.70;99.90;;;;;;5025492;28;20671;-74
2024/02/05 05:39:19;;;;;;;1.87;1.77;;;;;;;;;;5025541;28;20642;-75
2024/02/05 05:41:46;;;;;;;0.50;0.50;;;7.30;99.90;;;;;;5027029;28;20655;-74
2024/02/05 05:44:13;;;;;;;1.63;0.70;;;7.20;99.90;;;;;;5028838;28;20631;-74
2024/02/05 05:46:40;;;;;;;0.83;0.83;;;7.20;99.90;;;;;;5032104;27;20624;-75
2024/02/05 05:49:08;;;;;;;0.80;0.50;;;7.20;99.90;;;;;;5023796;28;20639;-77
2024/02/05 05:51:35;;;;;;;0.40;0.37;;;7.30;99.90;;;;;;5020016;28;20742;-77
2024/02/05 05:54:02;;;;;;;6.83;0.93;;;7.30;99.90;;;;;;5017722;28;20624;-77
2024/02/05 05:56:29;;;;;;;0.73;0.60;;;6.90;99.90;;;;;;5022362;28;20683;-77
2024/02/05 05:58:56;;;;;;;2.23;0.53;;;7.20;99.90;;;;;;5029358;28;20644;-77
2024/02/05 06:01:23;;;;;;;1.17;0.60;;;7.40;99.90;;;;;;5027080;28;21004;-77
2024/02/05 06:03:50;;;;;;;0.47;0.47;;;7.10;99.90;;;;;;5026638;28;20724;-77
2024/02/05 06:06:18;;;;;;;0.93;0.68;;;6.90;99.90;;;;;;5014762;28;20204;-77
2024/02/05 06:08:45;;;;;;;0.80;0.70;;;7.10;99.90;;;;;;5024883;28;20296;-77
2024/02/05 06:11:12;;;;;;;0.83;0.80;;;7.50;99.90;;;;;;5032325;27;20723;-77
2024/02/05 06:13:39;;;;;;;1.10;0.83;;;7.10;99.90;;;;;;5021625;28;20636;-77
2024/02/05 06:16:08;;;;;;;1.30;0.90;;;7.10;99.90;;;;;;5020433;28;21211;-77
2024/02/05 06:18:35;;;;;;;1.33;0.87;;;7.20;99.90;;;;;;5019544;28;20627;-76
2024/02/05 06:21:02;;;;;;;0.73;0.70;;;7.00;99.90;;;;;;5007758;28;20631;-78
2024/02/05 06:23:30;;;;;;;0.68;0.68;;;7.20;99.90;;;;;;5017187;28;20645;-75
2024/02/05 06:25:56;;;;;;;1.50;0.85;;;7.20;99.90;;;;;;5011215;28;20204;-80
2024/02/05 06:28:24;;;;;;;1.00;0.80;;;;;;;;;;5019220;28;20207;-74
2024/02/05 06:30:51;;;;;;;2.22;1.00;;;7.40;99.90;;;;;;5027967;28;20196;-80
2024/02/05 06:33:18;;;;;;;1.30;0.80;;;7.20;99.90;;;;;;5025019;28;20285;-78
2024/02/05 06:35:45;;;;;;;0.77;0.77;;;7.00;99.90;;;;;;5017002;28;20671;-78
2024/02/05 06:38:12;;;;;;;1.08;0.98;;;7.10;99.90;;;;;;5015482;28;20616;-74
2024/02/05 06:40:40;;;;;;;0.50;0.50;;;7.20;99.90;;;;;;5012366;28;20289;-72
2024/02/05 06:43:07;;;;;;;0.60;0.60;;;7.10;99.90;;;;;;5015717;28;20721;-74
2024/02/05 06:45:36;;;;;;;0.65;0.65;;;7.20;99.90;;;;;;5016041;28;20211;-73
2024/02/05 06:48:04;;;;;;;1.45;0.85;;;7.40;99.90;;;;;;5019526;28;20200;-73
2024/02/05 06:50:30;;;;;;;0.88;0.82;;;7.10;99.90;;;;;;5021196;28;20197;-72
2024/02/05 06:52:57;;;;;;;1.10;1.00;;;7.00;99.90;;;;;;5021121;28;20205;-72
2024/02/05 06:55:24;;;;;;;1.30;1.02;;;7.10;99.90;;;;;;5023530;28;20227;-73
2024/02/05 06:57:52;;;;;;;1.60;0.90;;;6.90;99.90;;;;;;5021899;27;20538;-73
2024/02/05 07:00:19;;;;;;;3.13;0.80;;;7.00;99.90;;;;;;5018336;28;20793;-73
2024/02/05 07:02:46;;;;;;;1.20;1.10;;;7.10;99.90;;;;;;5031080;27;20631;-73
2024/02/05 07:05:14;;;;;;;1.33;0.75;;;7.00;99.90;;;;;;5014316;28;20197;-73
2024/02/05 07:07:41;;;;;;;2.33;0.82;;;7.20;99.90;;;;;;5013919;28;20224;-73
2024/02/05 07:10:08;;;;;;;2.85;0.70;;;7.60;99.90;;;;;;5019929;28;20665;-73
2024/02/05 07:12:35;;;;;;;1.83;0.80;;;7.00;99.90;;;;;;5032241;28;20199;-73
2024/02/05 07:15:03;;;;;;;0.85;0.60;;;6.90;99.90;;;;;;5031365;28;20299;-73
2024/02/05 07:17:32;;;;;;;1.35;1.23;;;7.10;99.90;;;;;;5032304;28;20239;-73
2024/02/05 07:20:01;;;;;;;3.70;1.37;;;7.50;99.90;;;;;;5031736;28;20200;-73
2024/02/05 07:22:28;;;;;;;1.20;0.80;;;7.80;99.90;;;;;;5028208;28;20668;-73
2024/02/05 07:24:55;;;;;;;0.95;0.95;;;7.10;99.90;;;;;;5031940;28;20635;-73
2024/02/05 07:27:24;;;;;;;1.02;0.90;;;7.10;99.90;;;;;;5030971;28;20201;-73
2024/02/05 07:29:51;;;;;;;1.65;1.55;;;7.10;99.90;;;;;;5030756;28;20196;-73
2024/02/05 07:32:19;;;;;;;5.15;1.67;;;7.00;99.90;;;;;;5031042;28;20200;-73
2024/02/05 07:34:46;;;;;;;2.67;1.30;;;7.60;99.90;;;;;;5031328;28;20197;-73
2024/02/05 07:37:13;;;;;;;1.13;0.80;;;7.10;99.90;;;;;;5037693;28;20585;-73
2024/02/05 07:39:40;;;;;;;0.85;0.85;;;7.00;99.90;;;;;;5034221;28;20654;-73
2024/02/05 07:42:07;;;;;;;1.15;1.10;;;7.30;99.90;;;;;;5036260;28;20212;-73
2024/02/05 07:44:34;;;;;;;1.50;0.93;;;7.10;99.90;;;;;;5038915;28;20448;-73
2024/02/05 07:47:01;;;;;;;1.30;1.10;;;7.00;99.90;;;;;;5033132;28;20921;-73
2024/02/05 07:49:29;;;;;;;1.80;1.35;;;7.00;99.90;;;;;;5038270;27;20213;-73
2024/02/05 07:51:56;;;;;;;1.60;1.40;;;6.90;99.90;;;;;;5028768;28;20202;-73
2024/02/05 07:54:25;;;;;;;1.20;1.10;;;;;;;;;;5025361;28;20204;-73
2024/02/05 07:56:52;;;;;;;1.58;1.08;;;7.10;99.90;;;;;;5037632;27;20309;-73
2024/02/05 07:59:19;;;;;;;1.10;0.90;;;7.00;99.90;;;;;;5033332;28;20610;-73
2024/02/05 08:01:46;;;;;;;2.83;1.15;;;7.60;99.90;;;;;;5037378;28;20625;-73
2024/02/05 08:04:13;;;;;;;1.17;1.05;;;7.00;99.90;;;;;;5018352;28;20244;-73
2024/02/05 08:06:41;;;;;;;1.48;1.05;;;7.50;99.90;;;;;;5031141;28;20200;-73
2024/02/05 08:09:08;;;;;;;1.13;1.05;;;7.30;99.90;;;;;;5031180;28;20200;-73
2024/02/05 08:11:35;;;;;;;2.38;0.82;;;7.10;99.90;;;;;;5023219;28;20277;-73
2024/02/05 08:14:03;;;;;;;0.70;0.70;;;7.00;99.90;;;;;;5023201;28;20629;-73
2024/02/05 08:16:30;;;;;;;3.65;1.42;;;7.10;99.90;;;;;;5021591;28;20221;-73
2024/02/05 08:18:57;;;;;;;1.48;1.00;;;7.20;99.90;;;;;;5028246;28;20280;-73
2024/02/05 08:21:23;;;;;;;2.28;1.10;;;7.40;99.90;;;;;;5027032;28;20205;-73
2024/02/05 08:23:51;;;;;;;1.42;0.98;;;7.30;99.90;;;;;;5031210;28;20705;-73
2024/02/05 08:26:18;;;;;;;2.10;1.20;;;7.70;99.90;;;;;;5031869;28;20196;-73
2024/02/05 08:28:46;;;;;;;1.23;0.87;;;7.60;99.90;;;;;;5020523;28;20729;-73
2024/02/05 08:31:13;;;;;;;1.57;1.10;;;7.80;99.90;;;;;;5030579;28;20631;-73
2024/02/05 08:33:40;;;;;;;1.40;1.05;;;7.60;99.90;;;;;;5019664;28;20623;-73
2024/02/05 08:36:07;;;;;;;1.73;1.00;;;7.10;99.90;;;;;;5033497;28;20270;-72
2024/02/05 08:38:34;;;;;;;1.07;0.80;;;7.70;99.90;;;;;;5028064;28;20631;-73
2024/02/05 08:41:02;;;;;;;2.33;1.40;;;7.60;99.90;;;;;;5029365;28;20627;-73
2024/02/05 08:43:29;;;;;;;1.20;1.10;;;7.60;99.90;;;;;;5030244;28;20622;-73
2024/02/05 08:45:56;;;;;;;0.90;0.77;;;7.80;99.90;;;;;;5019937;28;20632;-72
2024/02/05 08:48:22;;;;;;;1.00;0.90;;;7.80;99.90;;;;;;5025506;27;20635;-73
2024/02/05 08:50:49;;;;;;;1.00;0.80;;;8.10;99.90;;;;;;5026577;28;20639;-73
2024/02/05 08:53:16;;;;;;;3.17;1.10;;;7.90;99.90;;;;;;5028331;28;20624;-73
2024/02/05 08:55:43;;;;;;;0.73;0.63;;;8.00;99.90;;;;;;5027162;28;20630;-73
2024/02/05 08:58:12;;;;;;;0.97;0.97;;;8.00;99.90;;;;;;5019166;28;20743;-72
2024/02/05 09:00:39;;;;;;;0.90;0.90;;;8.00;99.90;;;;;;5022349;28;20653;-73
2024/02/05 09:03:06;;;;;;;1.07;0.97;;;7.80;99.90;;;;;;5021866;28;20736;-73
2024/02/05 09:05:33;;;;;;;1.23;0.90;;;7.80;99.90;;;;;;5027200;28;20730;-73
2024/02/05 09:08:00;;;;;;;2.50;0.77;;;8.30;99.90;;;;;;5026913;28;20624;-73
2024/02/05 09:10:27;;;;;;;0.73;0.70;;;8.10;99.90;;;;;;5024562;28;20622;-73
2024/02/05 09:12:53;;;;;;;0.70;0.70;;;8.30;99.90;;;;;;5018378;28;20633;-73
2024/02/05 09:15:22;;;;;;;0.97;0.90;;;8.50;99.90;;;;;;5022180;28;20631;-73
2024/02/05 09:17:49;;;;;;;1.17;0.80;;;8.40;99.90;;;;;;5026817;28;20675;-73
2024/02/05 09:20:16;;;;;;;0.93;0.73;;;8.60;99.70;;;;;;5022635;28;20692;-73
2024/02/05 09:22:46;;;;;;;0.70;0.70;;;8.60;99.90;;;;;;5029372;28;20631;-73
2024/02/05 09:25:13;;;;;;;0.90;0.77;;;8.50;99.50;;;;;;5024095;28;20628;-73
2024/02/05 09:27:40;;;;;;;1.03;0.87;;;8.50;99.90;;;;;;5027542;28;20627;-73
2024/02/05 09:30:08;;;;;;;2.13;1.27;;;8.30;99.90;;;;;;5024247;28;20637;-73
2024/02/05 09:32:36;;;;;;;0.60;0.60;;;8.60;99.90;;;;;;5024623;28;20639;-73
2024/02/05 09:35:03;;;;;;;1.13;0.83;;;8.50;99.50;;;;;;5026343;28;20635;-73
2024/02/05 09:37:30;;;;;;;2.03;1.03;;;8.60;99.40;;;;;;5021892;28;20683;-73
2024/02/05 09:39:57;;;;;;;1.17;1.00;;;8.90;99.90;;;;;;5021505;28;20666;-73
2024/02/05 09:42:23;;;;;;;0.70;0.70;;;8.70;99.90;;;;;;5026992;28;21202;-73
2024/02/05 09:44:51;;;;;;;1.37;0.90;;;9.50;99.90;;;;;;5026744;28;20636;-73
2024/02/05 09:47:19;;;;;;;0.60;0.60;;;9.00;99.90;;;;;;5018830;28;20631;-73
2024/02/05 09:49:48;;;;;;;1.47;1.10;;;8.80;99.90;;;;;;5018486;28;20652;-73
2024/02/05 09:52:16;;;;;;;0.60;0.60;;;8.80;99.90;;;;;;5013289;28;21191;-73
2024/02/05 09:54:43;;;;;;;1.10;0.63;;;8.90;98.20;;;;;;5023567;28;21294;-73
2024/02/05 09:57:11;;;;;;;0.70;0.43;;;9.10;99.90;;;;;;5027068;28;20695;-73
2024/02/05 09:59:39;;;;;;;0.90;0.80;;;8.70;98.60;;;;;;5019779;28;21063;-73
2024/02/05 10:02:08;;;;;;;2.80;1.03;;;8.90;98.50;;;;;;5021733;28;20639;-73
2024/02/05 10:04:38;;;;;;;2.67;0.93;;;8.90;98.70;;;;;;5027126;28;20667;-73
2024/02/05 10:07:08;;;;;;;3.33;1.73;;;8.90;98.40;;;;;;5023131;28;20641;-73
2024/02/05 10:09:37;;;;;;;1.13;0.90;;;8.90;99.90;;;;;;5025194;28;20730;-73
2024/02/05 10:12:05;;;;;;;1.47;0.80;;;9.10;99.90;;;;;;5026232;28;21239;-73
2024/02/05 10:14:32;;;;;;;2.00;0.60;;;9.20;99.90;;;;;;5018473;28;20633;-73
2024/02/05 10:16:59;;;;;;;0.97;0.80;;;9.10;98.10;;;;;;5023082;28;20683;-72
2024/02/05 10:19:26;;;;;;;2.30;0.90;;;8.00;97.50;;;;;;5017421;28;20635;-73
2024/02/05 10:21:56;;;;;;;2.23;0.80;;;9.30;99.90;;;;;;5017039;28;21096;-73
2024/02/05 10:24:24;;;;;;;1.67;0.97;;;9.20;99.90;;;;;;5025389;28;20923;-73
2024/02/05 10:26:51;;;;;;;3.47;1.37;;;9.50;99.90;;;;;;5025078;28;20631;-73
2024/02/05 10:29:21;;;;;;;2.13;1.03;;;9.50;97.60;;;;;;5025823;28;20715;-73
2024/02/05 10:31:49;;;;;;;1.33;1.07;;;9.90;99.90;;;;;;5024702;28;21504;-73
2024/02/05 10:34:17;;;;;;;1.70;0.93;;;9.10;99.90;;;;;;5024878;28;20628;-73
2024/02/05 10:36:43;;;;;;;1.07;0.77;;;9.70;99.90;;;;;;5048190;27;21048;-73
2024/02/05 10:39:10;;;;;;;1.10;0.80;;;9.60;99.90;;;;;;5058146;27;20976;-73
2024/02/05 10:41:39;;;;;;;1.20;0.80;;;9.70;99.90;;;;;;5032323;28;20647;-73
2024/02/05 10:44:06;;;;;;;0.90;0.80;;;;;;;;;;5026609;28;20992;-73
2024/02/05 10:46:33;;;;;;;1.87;1.10;;;9.80;99.90;;;;;;5021666;28;20661;-73
2024/02/05 10:49:01;;;;;;;2.20;1.50;;;10.00;99.90;;;;;;5025726;28;20641;-73
2024/02/05 10:51:28;;;;;;;0.90;0.90;;;9.30;99.90;;;;;;5030344;28;20639;-73
2024/02/05 10:53:55;;;;;;;1.37;0.70;;;9.90;99.90;;;;;;5031734;28;20620;-73
2024/02/05 10:56:24;;;;;;;3.63;0.80;;;9.60;99.90;;;;;;5031214;28;20634;-73
2024/02/05 10:58:55;;;;;;;2.90;0.60;;;9.20;96.60;;;;;;5024634;28;21047;-72
2024/02/05 11:01:24;;;;;;;2.90;0.90;;;9.70;96.50;;;;;;5025234;28;20734;-73
2024/02/05 11:03:56;;;;;;;4.23;0.90;;;9.80;96.70;;;;;;5029853;28;20624;-73
2024/02/05 11:06:24;;;;;;;3.27;0.90;;;9.70;99.90;;;;;;5015810;28;20634;-73
2024/02/05 11:08:53;;;;;;;2.07;1.40;;;9.60;99.90;;;;;;5025782;28;20624;-73
2024/02/05 11:11:20;;;;;;;2.20;0.90;;;10.30;99.90;;;;;;5022076;28;20632;-73
2024/02/05 11:13:52;;;;;;;5.53;1.03;;;9.70;99.90;;;;;;5024050;28;20974;-72
2024/02/05 11:16:21;;;;;;;1.67;1.20;;;9.70;99.90;;;;;;5023527;28;20642;-75
2024/02/05 11:18:51;;;;;;;4.00;1.20;;;9.70;96.40;;;;;;5028939;28;20672;-75
2024/02/05 11:21:21;;;;;;;3.13;0.70;;;10.30;95.50;;;;;;5031376;28;20631;-75
2024/02/05 11:23:50;;;;;;;2.27;1.07;;;10.70;99.90;;;;;;5020830;28;20639;-74
2024/02/05 11:26:17;;;;;;;2.83;1.67;;;10.00;99.90;;;;;;5014796;28;20637;-74
2024/02/05 11:28:50;;;;;;;2.60;1.10;;;9.70;99.90;;;;;;5010261;28;20654;-75
2024/02/05 11:31:18;;;;;;;0.80;0.80;;;10.00;99.90;;;;;;5004877;28;21239;-75
2024/02/05 11:33:45;;;;;;;4.10;1.70;;;10.10;99.90;;;;;;5015615;28;20630;-80
2024/02/05 11:36:13;;;;;;;1.73;1.40;;;10.10;99.90;;;;;;5015748;28;20642;-74
2024/02/05 11:38:41;;;;;;;1.87;1.00;;;10.10;99.90;;;;;;5027556;28;21267;-76
2024/02/05 11:41:07;;;;;;;1.50;1.10;;;10.20;99.90;;;;;;5026379;28;20635;-77
2024/02/05 11:43:34;;;;;;;1.40;0.90;;;10.40;99.90;;;;;;5027859;28;20619;-74
2024/02/05 11:46:03;;;;;;;1.27;0.90;;;10.20;99.90;;;;;;5028534;28;21062;-75
2024/02/05 11:48:32;;;;;;;1.70;0.73;;;10.30;99.90;;;;;;5027001;28;20703;-76
2024/02/05 11:51:00;;;;;;;0.70;0.70;;;10.30;99.90;;;;;;5031602;28;20627;-75
2024/02/05 11:53:27;;;;;;;2.90;1.23;;;10.40;99.90;;;;;;5028539;28;20622;-81
2024/02/05 11:55:54;;;;;;;1.90;1.10;;;10.70;99.90;;;;;;5017736;28;20973;-81
2024/02/05 11:58:21;;;;;;;3.40;1.27;;;10.50;99.90;;;;;;5013184;28;20666;-82
2024/02/05 12:00:47;;;;;;;3.33;1.10;;;10.60;99.90;;;;;;5015051;28;20638;-82
2024/02/05 12:03:15;;;;;;;4.73;1.00;;;10.70;99.90;;;;;;5017076;28;20627;-81
2024/02/05 12:05:45;;;;;;;4.37;1.20;;;10.60;99.90;;;;;;5025705;28;20619;-82
2024/02/05 12:08:12;;;;;;;5.10;1.50;;;10.70;99.90;;;;;;5028500;28;20634;-81
2024/02/05 12:10:40;;;;;;;2.63;1.10;;;10.70;99.90;;;;;;5020636;28;20640;-81
2024/02/05 12:13:07;;;;;;;5.50;1.40;;;10.60;99.90;;;;;;5028502;28;21183;-81
2024/02/05 12:15:37;;;;;;;6.20;1.30;;;10.30;95.30;;;;;;5022008;28;20736;-81
2024/02/05 12:18:06;;;;;;;1.33;1.23;;;10.50;99.90;;;;;;5017636;28;20677;-82
2024/02/05 12:20:33;;;;;;;3.03;1.07;;;10.70;93.90;;;;;;5027584;28;20619;-81
2024/02/05 12:23:02;;;;;;;2.10;1.43;;;10.70;94.10;;;;;;5019036;28;20638;-82
2024/02/05 12:25:29;;;;;;;3.23;1.80;;;10.30;99.90;;;;;;5017217;28;20634;-81
2024/02/05 12:27:56;;;;;;;2.17;1.07;;;;;;;;;;5024965;28;20643;-80
2024/02/05 12:30:23;;;;;;;1.23;1.13;;;10.80;99.90;;;;;;5018728;28;20738;-82
2024/02/05 12:32:54;;;;;;;3.47;1.50;;;10.70;99.90;;;;;;5026373;28;20727;-81
2024/02/05 12:35:21;;;;;;;2.83;1.23;;;10.70;99.90;;;;;;5025389;28;20630;-80
2024/02/05 12:37:50;;;;;;;2.20;1.20;;;11.00;99.90;;;;;;5022610;28;20763;-82
2024/02/05 12:40:20;;;;;;;2.13;1.37;;;11.10;99.90;;;;;;5024824;28;20650;-81
2024/02/05 12:42:47;;;;;;;1.20;1.10;;;10.90;99.90;;;;;;5022795;28;20692;-81
2024/02/05 12:45:15;;;;;;;3.07;1.53;;;10.90;94.20;;;;;;5027226;28;20627;-82
2024/02/05 12:47:42;;;;;;;6.80;1.30;;;11.30;99.90;;;;;;5018407;28;20757;-82
2024/02/05 12:50:09;;;;;;;2.40;1.50;;;11.00;99.90;;;;;;5027544;28;20743;-82
2024/02/05 12:52:37;;;;;;;4.17;1.53;;;11.00;99.90;;;;;;5010907;28;20626;-81
2024/02/05 12:55:06;;;;;;;1.97;1.10;;;10.80;99.90;;;;;;5013432;28;20631;-81
2024/02/05 12:57:35;;;;;;;5.83;1.27;;;10.90;99.90;;;;;;5013287;28;20706;-82
2024/02/05 13:00:04;;;;;;;5.90;1.57;;;10.90;99.90;;;;;;5020050;28;20728;-83